createdAt,value
2022-10-07T00:00:56.106Z,3.78
2022-10-07T00:03:26.983Z,3.58
2022-10-07T00:06:14.763Z,2.92
2022-10-07T00:08:44.411Z,3.80
2022-10-07T00:11:16.770Z,3.70
2022-10-07T00:13:45.301Z,4.20
2022-10-07T00:16:17.346Z,3.75
2022-10-07T00:18:44.716Z,3.80
2022-10-07T00:21:14.350Z,3.88
2022-10-07T00:23:42.784Z,3.53
2022-10-07T00:26:13.111Z,4.03
2022-10-07T00:28:40.281Z,3.70
2022-10-07T00:31:15.488Z,3.45
2022-10-07T00:33:45.867Z,3.67
2022-10-07T00:36:19.369Z,3.70
2022-10-07T00:38:50.637Z,3.30
2022-10-07T00:41:21.919Z,3.78
2022-10-07T00:43:48.877Z,3.70
2022-10-07T00:46:30.614Z,3.53
2022-10-07T00:49:02.944Z,3.33
2022-10-07T00:51:31.536Z,3.53
2022-10-07T00:53:58.341Z,3.60
2022-10-07T00:56:29.438Z,3.08
2022-10-07T00:58:58.955Z,3.10
2022-10-07T01:01:26.741Z,3.47
2022-10-07T01:03:54.258Z,3.40
2022-10-07T01:06:20.975Z,3.35
2022-10-07T01:08:52.797Z,3.63
2022-10-07T01:11:37.906Z,3.80
2022-10-07T01:14:45.903Z,3.55
2022-10-07T01:17:25.563Z,4.03
2022-10-07T01:20:31.478Z,4.00
2022-10-07T01:23:22.283Z,3.15
2022-10-07T01:26:07.825Z,3.20
2022-10-07T01:28:40.288Z,3.28
2022-10-07T01:31:13.737Z,3.75
2022-10-07T01:33:45.697Z,3.40
2022-10-07T01:36:18.130Z,3.50
2022-10-07T01:38:53.142Z,3.38
2022-10-07T01:41:23.116Z,3.10
2022-10-07T01:43:54.165Z,3.42
2022-10-07T01:46:28.621Z,2.88
2022-10-07T01:48:55.226Z,3.72
2022-10-07T01:51:28.598Z,3.20
2022-10-07T01:54:08.519Z,3.97
2022-10-07T01:56:56.756Z,3.20
2022-10-07T01:59:53.271Z,3.00
2022-10-07T02:02:41.578Z,3.13
2022-10-07T02:05:27.271Z,2.92
2022-10-07T02:08:20.403Z,3.50
2022-10-07T02:10:56.882Z,3.75
2022-10-07T02:13:50.971Z,2.97
2022-10-07T02:16:37.816Z,3.05
2022-10-07T02:19:11.058Z,2.70
2022-10-07T02:21:41.339Z,3.15
2022-10-07T02:24:12.611Z,3.30
2022-10-07T02:26:43.617Z,2.97
2022-10-07T02:29:12.639Z,3.03
2022-10-07T02:31:41.750Z,3.20
2022-10-07T02:34:18.876Z,3.72
2022-10-07T02:36:51.723Z,3.15
2022-10-07T02:39:21.681Z,2.90
2022-10-07T02:42:07.234Z,2.50
2022-10-07T02:44:51.748Z,3.00
2022-10-07T02:47:36.342Z,3.08
2022-10-07T02:50:10.853Z,3.20
2022-10-07T02:52:38.950Z,3.05
2022-10-07T02:55:09.732Z,3.13
2022-10-07T02:57:44.590Z,2.90
2022-10-07T03:00:12.762Z,2.83
2022-10-07T03:02:45.122Z,3.67
2022-10-07T03:05:19.617Z,2.97
2022-10-07T03:07:53.426Z,2.92
2022-10-07T03:10:22.453Z,3.05
2022-10-07T03:12:50.493Z,2.75
2022-10-07T03:15:17.172Z,3.30
2022-10-07T03:17:43.964Z,3.45
2022-10-07T03:20:15.113Z,3.50
2022-10-07T03:22:45.063Z,2.90
2022-10-07T03:25:12.725Z,2.90
2022-10-07T03:27:39.901Z,3.38
2022-10-07T03:30:07.408Z,3.17
2022-10-07T03:32:34.292Z,2.65
2022-10-07T03:35:00.959Z,2.80
2022-10-07T03:37:32.885Z,3.22
2022-10-07T03:39:59.509Z,3.13
2022-10-07T03:42:26.056Z,3.05
2022-10-07T03:44:52.747Z,2.53
2022-10-07T03:47:21.357Z,3.40
2022-10-07T03:49:50.452Z,3.10
2022-10-07T03:52:21.785Z,3.53
2022-10-07T03:54:48.311Z,2.60
2022-10-07T03:57:33.513Z,3.40
2022-10-07T04:00:00.072Z,3.25
2022-10-07T04:02:27.900Z,3.13
2022-10-07T04:04:59.272Z,3.35
2022-10-07T04:07:28.378Z,2.95
2022-10-07T04:09:55.011Z,3.20
2022-10-07T04:12:21.623Z,3.38
2022-10-07T04:14:50.440Z,3.20
2022-10-07T04:17:20.392Z,3.38
2022-10-07T04:19:46.909Z,3.03
2022-10-07T04:22:13.478Z,3.65
2022-10-07T04:24:40.142Z,3.85
2022-10-07T04:27:06.686Z,3.40
2022-10-07T04:29:39.148Z,3.50
2022-10-07T04:32:05.919Z,3.50
2022-10-07T04:34:32.579Z,3.28
2022-10-07T04:37:01.082Z,3.38
2022-10-07T04:39:49.048Z,3.08
2022-10-07T04:42:34.544Z,2.78
2022-10-07T04:45:03.581Z,3.60
2022-10-07T04:47:30.111Z,3.33
2022-10-07T04:49:56.872Z,2.90
2022-10-07T04:52:28.288Z,4.05
2022-10-07T04:54:54.968Z,3.30
2022-10-07T04:57:21.508Z,3.25
2022-10-07T04:59:48.057Z,3.22
2022-10-07T05:02:16.952Z,3.60
2022-10-07T05:04:45.975Z,4.72
2022-10-07T05:07:12.583Z,5.07
2022-10-07T05:09:39.207Z,3.83
2022-10-07T05:12:06.550Z,3.97
2022-10-07T05:14:33.793Z,5.53
2022-10-07T05:17:04.133Z,5.85
2022-10-07T05:19:30.764Z,5.35
2022-10-07T05:21:59.740Z,4.88
2022-10-07T05:24:26.441Z,6.13
2022-10-07T05:26:55.297Z,5.20
2022-10-07T05:29:22.138Z,6.85
2022-10-07T05:31:51.623Z,6.63
2022-10-07T05:34:18.214Z,5.45
2022-10-07T05:36:44.850Z,5.55
2022-10-07T05:39:14.617Z,5.00
2022-10-07T05:41:45.670Z,4.63
2022-10-07T05:44:12.818Z,5.22
2022-10-07T05:46:42.155Z,4.35
2022-10-07T05:49:08.816Z,4.45
2022-10-07T05:51:35.487Z,5.07
2022-10-07T05:54:04.329Z,4.82
2022-10-07T05:56:30.986Z,4.10
2022-10-07T05:58:59.785Z,4.88
2022-10-07T06:01:28.095Z,5.15
2022-10-07T06:03:57.280Z,5.55
2022-10-07T06:06:26.901Z,4.63
2022-10-07T06:08:53.837Z,5.40
2022-10-07T06:11:39.360Z,5.35
2022-10-07T06:14:06.729Z,4.80
2022-10-07T06:16:33.728Z,5.32
2022-10-07T06:19:00.359Z,5.80
2022-10-07T06:21:28.278Z,5.45
2022-10-07T06:23:56.803Z,4.60
2022-10-07T06:26:26.229Z,5.25
2022-10-07T06:28:55.383Z,4.95
2022-10-07T06:31:24.739Z,6.03
2022-10-07T06:33:51.829Z,6.40
2022-10-07T06:36:19.092Z,6.72
2022-10-07T06:38:50.084Z,6.80
2022-10-07T06:41:17.190Z,5.50
2022-10-07T06:43:46.496Z,6.40
2022-10-07T06:46:18.006Z,6.35
2022-10-07T06:48:50.491Z,5.85
2022-10-07T06:51:24.428Z,7.88
2022-10-07T06:53:53.570Z,7.00
2022-10-07T06:56:22.602Z,8.77
2022-10-07T06:58:49.921Z,5.78
2022-10-07T07:01:16.926Z,5.80
2022-10-07T07:03:45.872Z,5.95
2022-10-07T07:06:12.590Z,5.10
2022-10-07T07:08:43.719Z,5.07
2022-10-07T07:11:32.541Z,4.15
2022-10-07T07:13:59.347Z,5.45
2022-10-07T07:16:26.743Z,4.70
2022-10-07T07:18:57.441Z,5.03
2022-10-07T07:21:28.848Z,6.43
2022-10-07T07:23:58.876Z,4.82
2022-10-07T07:26:25.574Z,4.43
2022-10-07T07:29:00.653Z,4.15
2022-10-07T07:31:29.377Z,4.53
2022-10-07T07:34:01.902Z,4.13
2022-10-07T07:36:30.323Z,4.95
2022-10-07T07:38:59.710Z,4.20
2022-10-07T07:41:30.134Z,4.38
2022-10-07T07:43:58.729Z,5.13
2022-10-07T07:46:33.205Z,4.30
2022-10-07T07:48:59.794Z,4.22
2022-10-07T07:51:26.362Z,3.50
2022-10-07T07:53:52.950Z,3.70
2022-10-07T07:56:20.832Z,3.72
2022-10-07T07:58:47.526Z,4.28
2022-10-07T08:01:17.927Z,3.65
2022-10-07T08:03:46.781Z,3.83
2022-10-07T08:06:15.260Z,3.22
2022-10-07T08:08:44.618Z,4.03
2022-10-07T08:11:16.206Z,3.35
2022-10-07T08:13:43.318Z,3.30
2022-10-07T08:16:14.341Z,3.40
2022-10-07T08:18:42.745Z,3.30
2022-10-07T08:21:10.804Z,3.25
2022-10-07T08:23:39.156Z,3.58
2022-10-07T08:26:07.862Z,3.10
2022-10-07T08:28:35.879Z,2.63
2022-10-07T08:31:05.158Z,3.70
2022-10-07T08:33:39.948Z,3.13
2022-10-07T08:36:13.648Z,2.95
2022-10-07T08:38:51.816Z,3.53
2022-10-07T08:41:59.215Z,2.50
2022-10-07T08:44:37.706Z,2.85
2022-10-07T08:47:27.474Z,2.67
2022-10-07T08:50:24.573Z,2.85
2022-10-07T08:53:01.895Z,3.58
2022-10-07T08:55:36.395Z,2.75
2022-10-07T08:58:34.664Z,2.90
2022-10-07T09:01:20.440Z,2.72
2022-10-07T09:04:10.701Z,3.10
2022-10-07T09:06:52.566Z,2.20
2022-10-07T09:09:32.581Z,2.97
2022-10-07T09:12:04.005Z,2.58
2022-10-07T09:14:41.977Z,2.80
2022-10-07T09:17:35.194Z,2.70
2022-10-07T09:20:16.754Z,2.00
2022-10-07T09:22:51.008Z,2.30
2022-10-07T09:25:24.149Z,2.67
2022-10-07T09:27:52.272Z,2.17
2022-10-07T09:30:20.694Z,2.72
2022-10-07T09:32:50.224Z,2.88
2022-10-07T09:35:21.159Z,2.88
2022-10-07T09:38:10.090Z,2.28
2022-10-07T09:41:04.338Z,2.65
2022-10-07T09:43:34.678Z,2.28
2022-10-07T09:46:01.572Z,2.47
2022-10-07T09:48:34.306Z,2.00
2022-10-07T09:51:19.196Z,2.05
2022-10-07T09:54:08.693Z,2.75
2022-10-07T09:56:39.843Z,4.18
2022-10-07T09:59:36.928Z,2.60
2022-10-07T10:02:26.035Z,2.58
2022-10-07T10:04:57.429Z,1.90
2022-10-07T10:07:28.665Z,1.88
2022-10-07T10:09:58.784Z,2.00
2022-10-07T10:12:28.252Z,1.80
2022-10-07T10:14:58.778Z,1.80
2022-10-07T10:17:36.510Z,2.22
2022-10-07T10:20:29.994Z,1.70
2022-10-07T10:23:00.452Z,1.70
2022-10-07T10:26:18.021Z,2.15
2022-10-07T10:29:05.647Z,1.63
2022-10-07T10:31:50.689Z,1.75
2022-10-07T10:34:17.164Z,2.08
2022-10-07T10:36:48.307Z,1.58
2022-10-07T10:39:31.525Z,1.85
2022-10-07T10:42:06.994Z,1.77
2022-10-07T10:44:51.709Z,1.90
2022-10-07T10:47:33.647Z,1.67
2022-10-07T10:50:23.720Z,1.70
2022-10-07T10:53:15.348Z,1.88
2022-10-07T10:56:10.419Z,1.38
2022-10-07T10:59:11.776Z,1.50
2022-10-07T11:01:41.947Z,1.73
2022-10-07T11:04:26.867Z,1.33
2022-10-07T11:06:59.900Z,1.55
2022-10-07T11:09:37.278Z,1.98
2022-10-07T11:12:21.245Z,1.90
2022-10-07T11:14:57.615Z,2.00
2022-10-07T11:17:31.476Z,1.90
2022-10-07T11:20:14.472Z,5.65
2022-10-07T11:22:49.077Z,2.10
2022-10-07T11:25:28.984Z,1.85
2022-10-07T11:28:07.197Z,2.60
2022-10-07T11:30:45.565Z,2.30
2022-10-07T11:33:19.143Z,1.90
2022-10-07T11:36:03.375Z,1.83
2022-10-07T11:38:36.509Z,1.83
2022-10-07T11:41:31.146Z,1.63
2022-10-07T11:44:03.979Z,1.80
2022-10-07T11:46:39.428Z,4.70
2022-10-07T11:49:18.236Z,2.10
2022-10-07T11:52:21.898Z,3.00
2022-10-07T11:55:00.659Z,2.83
2022-10-07T11:57:31.854Z,2.58
2022-10-07T12:00:23.451Z,2.72
2022-10-07T12:02:51.100Z,1.97
2022-10-07T12:05:36.520Z,2.40
2022-10-07T12:08:24.738Z,1.97
2022-10-07T12:10:59.189Z,2.40
2022-10-07T12:13:38.033Z,3.60
2022-10-07T12:16:25.937Z,1.67
2022-10-07T12:19:08.056Z,1.60
2022-10-07T12:22:00.578Z,1.83
2022-10-07T12:24:28.107Z,1.98
2022-10-07T12:27:06.890Z,1.85
2022-10-07T12:30:02.310Z,1.88
2022-10-07T12:32:56.402Z,2.50
2022-10-07T12:35:35.048Z,1.60
2022-10-07T12:38:10.743Z,1.58
2022-10-07T12:40:44.876Z,1.88
2022-10-07T12:43:34.613Z,1.27
2022-10-07T12:46:05.914Z,1.85
2022-10-07T12:48:41.651Z,1.58
2022-10-07T12:51:19.601Z,1.50
2022-10-07T12:53:48.737Z,1.55
2022-10-07T12:56:23.753Z,1.35
2022-10-07T12:59:15.878Z,11.10
2022-10-07T13:01:42.458Z,4.95
2022-10-07T13:04:47.544Z,1.92
2022-10-07T13:07:17.209Z,2.75
2022-10-07T13:09:46.801Z,3.28
2022-10-07T13:12:44.768Z,2.58
2022-10-07T13:15:27.890Z,3.30
2022-10-07T13:18:10.488Z,3.70
2022-10-07T13:20:55.102Z,3.25
2022-10-07T13:23:27.245Z,2.10
2022-10-07T13:25:57.529Z,1.80
2022-10-07T13:28:26.764Z,3.03
2022-10-07T13:30:53.834Z,3.38
2022-10-07T13:33:28.445Z,5.53
2022-10-07T13:36:07.910Z,2.08
2022-10-07T13:38:35.063Z,1.65
2022-10-07T13:41:24.925Z,2.05
2022-10-07T13:43:54.380Z,1.40
2022-10-07T13:46:23.876Z,1.85
2022-10-07T13:48:51.457Z,1.73
2022-10-07T13:51:28.980Z,2.28
2022-10-07T13:53:58.369Z,2.67
2022-10-07T13:56:50.472Z,2.38
2022-10-07T13:59:18.590Z,1.83
2022-10-07T14:01:48.926Z,1.30
2022-10-07T14:04:21.500Z,1.83
2022-10-07T14:06:58.705Z,1.58
2022-10-07T14:09:35.962Z,1.90
2022-10-07T14:12:09.187Z,2.78
2022-10-07T14:14:38.601Z,4.28
2022-10-07T14:17:32.677Z,1.90
2022-10-07T14:20:05.656Z,1.77
2022-10-07T14:22:43.967Z,2.15
2022-10-07T14:25:21.145Z,1.92
2022-10-07T14:27:58.449Z,1.70
2022-10-07T14:30:55.757Z,1.55
2022-10-07T14:33:58.769Z,1.65
2022-10-07T14:36:26.451Z,1.60
2022-10-07T14:38:55.774Z,1.25
2022-10-07T14:41:27.234Z,1.40
2022-10-07T14:44:00.288Z,1.75
2022-10-07T14:46:28.199Z,2.50
2022-10-07T14:48:55.303Z,1.60
2022-10-07T14:51:26.989Z,2.40
2022-10-07T14:53:59.395Z,1.67
2022-10-07T14:56:31.347Z,7.07
2022-10-07T14:58:57.890Z,6.45
2022-10-07T15:01:26.682Z,2.00
2022-10-07T15:03:53.235Z,1.50
2022-10-07T15:06:20.597Z,6.57
2022-10-07T15:08:48.602Z,2.20
2022-10-07T15:11:16.725Z,1.70
2022-10-07T15:13:43.523Z,1.40
2022-10-07T15:16:19.490Z,2.05
2022-10-07T15:18:52.436Z,1.55
2022-10-07T15:21:21.673Z,1.95
2022-10-07T15:23:53.224Z,1.75
2022-10-07T15:26:23.652Z,1.35
2022-10-07T15:28:56.389Z,1.60
2022-10-07T15:31:26.157Z,1.90
2022-10-07T15:33:56.441Z,1.55
2022-10-07T15:36:29.071Z,1.50
2022-10-07T15:38:58.875Z,2.03
2022-10-07T15:41:30.202Z,1.25
2022-10-07T15:43:59.023Z,1.80
2022-10-07T15:46:25.897Z,1.13
2022-10-07T15:48:56.826Z,1.42
2022-10-07T15:51:31.160Z,2.30
2022-10-07T15:53:58.515Z,1.40
2022-10-07T15:56:25.534Z,1.60
2022-10-07T15:58:53.234Z,3.05
2022-10-07T16:01:20.312Z,1.65
2022-10-07T16:03:49.421Z,1.58
2022-10-07T16:06:23.789Z,1.77
2022-10-07T16:08:51.268Z,1.48
2022-10-07T16:11:18.043Z,1.60
2022-10-07T16:13:48.743Z,1.40
2022-10-07T16:16:20.633Z,1.67
2022-10-07T16:18:49.238Z,1.95
2022-10-07T16:21:30.377Z,1.45
2022-10-07T16:24:02.621Z,1.38
2022-10-07T16:26:30.315Z,1.85
2022-10-07T16:29:17.965Z,1.52
2022-10-07T16:31:46.634Z,2.30
2022-10-07T16:34:15.383Z,2.65
2022-10-07T16:36:45.747Z,1.60
2022-10-07T16:39:13.038Z,1.48
2022-10-07T16:41:45.683Z,1.42
2022-10-07T16:44:13.208Z,1.50
2022-10-07T16:46:40.562Z,1.73
2022-10-07T16:49:09.107Z,1.27
2022-10-07T16:51:39.453Z,1.90
2022-10-07T16:54:15.984Z,1.63
2022-10-07T16:56:48.330Z,2.05
2022-10-07T16:59:23.205Z,2.17
2022-10-07T17:01:55.378Z,2.55
2022-10-07T17:04:22.864Z,1.60
2022-10-07T17:06:55.226Z,1.60
2022-10-07T17:09:24.571Z,1.60
2022-10-07T17:11:53.524Z,2.25
2022-10-07T17:14:21.961Z,1.95
2022-10-07T17:16:51.317Z,1.67
2022-10-07T17:19:20.283Z,1.40
2022-10-07T17:21:48.294Z,1.60
2022-10-07T17:24:16.266Z,1.30
2022-10-07T17:26:43.691Z,1.50
2022-10-07T17:29:12.745Z,1.52
2022-10-07T17:31:43.390Z,1.92
2022-10-07T17:34:11.416Z,1.80
2022-10-07T17:36:40.269Z,1.77
2022-10-07T17:39:07.061Z,1.40
2022-10-07T17:41:35.879Z,1.45
2022-10-07T17:44:09.978Z,2.00
2022-10-07T17:46:39.952Z,1.67
2022-10-07T17:49:13.501Z,1.40
2022-10-07T17:51:48.468Z,1.90
2022-10-07T17:54:15.150Z,1.92
2022-10-07T17:56:44.586Z,1.30
2022-10-07T17:59:14.295Z,1.80
2022-10-07T18:01:44.510Z,1.80
2022-10-07T18:04:15.506Z,2.08
2022-10-07T18:06:43.624Z,1.60
2022-10-07T18:09:15.205Z,1.85
2022-10-07T18:12:00.556Z,1.50
2022-10-07T18:14:53.281Z,2.10
2022-10-07T18:17:20.811Z,2.30
2022-10-07T18:19:49.470Z,3.17
2022-10-07T18:22:16.041Z,2.08
2022-10-07T18:24:42.737Z,2.20
2022-10-07T18:27:09.297Z,2.00
2022-10-07T18:29:38.279Z,2.22
2022-10-07T18:32:06.494Z,1.85
2022-10-07T18:34:33.244Z,2.30
2022-10-07T18:37:00.548Z,1.65
2022-10-07T18:39:29.640Z,2.15
2022-10-07T18:41:56.831Z,1.70
2022-10-07T18:44:23.667Z,2.10
2022-10-07T18:46:50.937Z,1.85
2022-10-07T18:49:22.207Z,1.75
2022-10-07T18:51:50.726Z,1.65
2022-10-07T18:54:21.178Z,1.73
2022-10-07T18:56:49.117Z,1.60
2022-10-07T18:59:16.355Z,1.92
2022-10-07T19:01:47.795Z,2.33
2022-10-07T19:04:16.662Z,2.10
2022-10-07T19:06:45.276Z,1.88
2022-10-07T19:09:22.628Z,2.75
2022-10-07T19:11:49.966Z,2.88
2022-10-07T19:14:16.599Z,2.20
2022-10-07T19:16:49.261Z,2.65
2022-10-07T19:19:21.441Z,2.90
2022-10-07T19:21:51.780Z,2.55
2022-10-07T19:24:19.514Z,2.60
2022-10-07T19:26:48.921Z,2.05
2022-10-07T19:29:18.492Z,2.40
2022-10-07T19:31:48.735Z,2.10
2022-10-07T19:34:24.803Z,1.83
2022-10-07T19:36:51.530Z,2.47
2022-10-07T19:39:21.031Z,2.38
2022-10-07T19:41:48.630Z,1.92
2022-10-07T19:44:16.340Z,2.65
2022-10-07T19:46:43.006Z,2.30
2022-10-07T19:49:10.430Z,2.25
2022-10-07T19:51:38.857Z,2.83
2022-10-07T19:54:10.749Z,2.42
2022-10-07T19:56:38.239Z,2.50
2022-10-07T19:59:10.261Z,2.58
2022-10-07T20:01:42.202Z,2.65
2022-10-07T20:04:14.182Z,2.58
2022-10-07T20:06:41.264Z,2.95
2022-10-07T20:09:10.631Z,2.60
2022-10-07T20:11:37.221Z,2.40
2022-10-07T20:14:05.880Z,2.45
2022-10-07T20:16:33.889Z,2.50
2022-10-07T20:19:05.796Z,2.60
2022-10-07T20:21:35.457Z,2.80
2022-10-07T20:24:02.185Z,2.40
2022-10-07T20:26:31.285Z,2.65
2022-10-07T20:29:00.933Z,2.17
2022-10-07T20:31:32.960Z,2.50
2022-10-07T20:34:02.829Z,2.50
2022-10-07T20:36:32.562Z,2.22
2022-10-07T20:39:19.636Z,2.45
2022-10-07T20:42:05.016Z,3.00
2022-10-07T20:44:31.760Z,4.03
2022-10-07T20:46:58.352Z,3.30
2022-10-07T20:49:33.736Z,2.97
2022-10-07T20:52:02.283Z,3.10
2022-10-07T20:54:32.687Z,2.78
2022-10-07T20:57:00.148Z,3.00
2022-10-07T20:59:28.065Z,3.25
2022-10-07T21:01:54.807Z,3.10
2022-10-07T21:04:21.739Z,3.63
2022-10-07T21:06:51.373Z,3.20
2022-10-07T21:09:19.073Z,3.33
2022-10-07T21:11:47.163Z,3.25
2022-10-07T21:14:14.542Z,3.17
2022-10-07T21:16:43.698Z,2.83
2022-10-07T21:19:10.286Z,3.17
2022-10-07T21:21:36.876Z,3.05
2022-10-07T21:24:03.632Z,3.40
2022-10-07T21:26:30.226Z,3.38
2022-10-07T21:28:56.780Z,3.40
2022-10-07T21:31:23.516Z,3.33
2022-10-07T21:33:51.485Z,3.08
2022-10-07T21:36:24.288Z,2.80
2022-10-07T21:38:58.852Z,3.00
2022-10-07T21:41:31.571Z,3.15
2022-10-07T21:43:58.643Z,4.20
2022-10-07T21:46:27.046Z,3.65
2022-10-07T21:48:56.112Z,2.50
2022-10-07T21:51:23.494Z,4.18
2022-10-07T21:53:53.950Z,3.72
2022-10-07T21:56:25.267Z,3.22
2022-10-07T21:58:55.168Z,4.03
2022-10-07T22:01:27.619Z,2.80
2022-10-07T22:03:56.449Z,3.25
2022-10-07T22:06:43.358Z,2.80
2022-10-07T22:09:10.906Z,3.45
2022-10-07T22:11:40.314Z,2.38
2022-10-07T22:14:12.070Z,2.63
2022-10-07T22:16:39.354Z,2.50
2022-10-07T22:19:06.518Z,2.78
2022-10-07T22:21:35.800Z,2.50
2022-10-07T22:24:05.160Z,3.03
2022-10-07T22:26:37.917Z,3.40
2022-10-07T22:29:09.533Z,3.03
2022-10-07T22:31:37.346Z,2.58
2022-10-07T22:34:06.117Z,2.25
2022-10-07T22:36:32.740Z,2.47
2022-10-07T22:39:00.057Z,2.15
2022-10-07T22:41:26.742Z,2.83
2022-10-07T22:43:53.785Z,2.65
2022-10-07T22:46:28.867Z,2.55
2022-10-07T22:48:58.096Z,2.85
2022-10-07T22:51:29.124Z,1.92
2022-10-07T22:53:56.854Z,2.60
2022-10-07T22:56:25.833Z,2.67
2022-10-07T22:58:58.869Z,2.65
2022-10-07T23:01:31.245Z,1.80
2022-10-07T23:04:03.425Z,2.53
2022-10-07T23:06:35.117Z,2.35
2022-10-07T23:09:05.233Z,2.90
2022-10-07T23:11:32.106Z,2.55
2022-10-07T23:13:59.391Z,2.67
2022-10-07T23:16:30.400Z,1.90
2022-10-07T23:18:58.642Z,2.30
2022-10-07T23:21:28.003Z,2.38
2022-10-07T23:24:06.846Z,1.90
2022-10-07T23:26:35.041Z,2.10
2022-10-07T23:29:02.767Z,2.25
2022-10-07T23:31:31.809Z,1.80
2022-10-07T23:33:59.421Z,2.35
2022-10-07T23:36:26.901Z,2.20
2022-10-07T23:38:56.226Z,2.30
2022-10-07T23:41:25.765Z,2.15
2022-10-07T23:43:54.517Z,2.63
2022-10-07T23:46:22.737Z,2.38
2022-10-07T23:48:52.145Z,2.35
2022-10-07T23:51:21.725Z,2.05
2022-10-07T23:53:49.021Z,2.05
2022-10-07T23:56:16.056Z,2.28
2022-10-07T23:58:42.593Z,2.00
